sensor_id;sensor_type;location;lat;lon;timestamp;pressure;altitude;pressure_sealevel;temperature;humidity
50356;BME280;36264;51.296;-0.602;2023-02-08T00:00:22;103553.84;;;0.94;100.00
50356;BME280;36264;51.296;-0.602;2023-02-08T00:02:48;103551.31;;;0.95;100.00
50356;BME280;36264;51.296;-0.602;2023-02-08T00:05:14;103548.63;;;0.92;100.00
50356;BME280;36264;51.296;-0.602;2023-02-08T00:07:39;103548.22;;;0.84;100.00
50356;BME280;36264;51.296;-0.602;2023-02-08T00:10:05;103546.88;;;0.76;100.00
50356;BME280;36264;51.296;-0.602;2023-02-08T00:12:35;103556.16;;;0.74;100.00
50356;BME280;36264;51.296;-0.602;2023-02-08T00:15:00;103556.91;;;0.71;100.00
50356;BME280;36264;51.296;-0.602;2023-02-08T00:17:26;103559.47;;;0.71;100.00
50356;BME280;36264;51.296;-0.602;2023-02-08T00:19:51;103555.13;;;0.70;100.00
50356;BME280;36264;51.296;-0.602;2023-02-08T00:22:17;103562.72;;;0.69;100.00
50356;BME280;36264;51.296;-0.602;2023-02-08T00:24:42;103563.41;;;0.66;100.00
50356;BME280;36264;51.296;-0.602;2023-02-08T00:27:07;103557.97;;;0.60;100.00
50356;BME280;36264;51.296;-0.602;2023-02-08T00:29:33;103560.69;;;0.63;100.00
50356;BME280;36264;51.296;-0.602;2023-02-08T00:31:58;103557.88;;;0.59;100.00
50356;BME280;36264;51.296;-0.602;2023-02-08T00:34:24;103554.19;;;0.53;100.00
50356;BME280;36264;51.296;-0.602;2023-02-08T00:36:49;103551.63;;;0.53;100.00
50356;BME280;36264;51.296;-0.602;2023-02-08T00:39:14;103554.28;;;0.55;100.00
50356;BME280;36264;51.296;-0.602;2023-02-08T00:41:40;103548.47;;;0.58;100.00
50356;BME280;36264;51.296;-0.602;2023-02-08T00:44:05;103541.31;;;0.52;100.00
50356;BME280;36264;51.296;-0.602;2023-02-08T00:46:31;103537.19;;;0.54;100.00
50356;BME280;36264;51.296;-0.602;2023-02-08T00:48:56;103538.75;;;0.52;100.00
50356;BME280;36264;51.296;-0.602;2023-02-08T00:51:21;103532.16;;;0.41;100.00
50356;BME280;36264;51.296;-0.602;2023-02-08T00:53:47;103533.94;;;0.42;100.00
50356;BME280;36264;51.296;-0.602;2023-02-08T00:56:13;103524.66;;;0.44;100.00
50356;BME280;36264;51.296;-0.602;2023-02-08T00:58:40;103531.47;;;0.43;100.00
50356;BME280;36264;51.296;-0.602;2023-02-08T01:01:06;103529.69;;;0.42;100.00
50356;BME280;36264;51.296;-0.602;2023-02-08T01:03:33;103526.19;;;0.40;100.00
50356;BME280;36264;51.296;-0.602;2023-02-08T01:06:01;103525.28;;;0.40;100.00
50356;BME280;36264;51.296;-0.602;2023-02-08T01:08:26;103531.22;;;0.39;100.00
50356;BME280;36264;51.296;-0.602;2023-02-08T01:10:52;103525.19;;;0.38;100.00
50356;BME280;36264;51.296;-0.602;2023-02-08T01:13:17;103524.25;;;0.36;100.00
50356;BME280;36264;51.296;-0.602;2023-02-08T01:15:43;103535.59;;;0.41;100.00
50356;BME280;36264;51.296;-0.602;2023-02-08T01:18:09;103538.41;;;0.46;100.00
50356;BME280;36264;51.296;-0.602;2023-02-08T01:20:35;103535.34;;;0.51;100.00
50356;BME280;36264;51.296;-0.602;2023-02-08T01:23:01;103531.91;;;0.51;100.00
50356;BME280;36264;51.296;-0.602;2023-02-08T01:25:27;103528.44;;;0.50;100.00
50356;BME280;36264;51.296;-0.602;2023-02-08T01:27:52;103518.84;;;0.46;100.00
50356;BME280;36264;51.296;-0.602;2023-02-08T01:30:21;103527.31;;;0.45;100.00
50356;BME280;36264;51.296;-0.602;2023-02-08T01:32:46;103519.72;;;0.47;100.00
50356;BME280;36264;51.296;-0.602;2023-02-08T01:35:12;103510.28;;;0.46;100.00
50356;BME280;36264;51.296;-0.602;2023-02-08T01:37:37;103505.16;;;0.46;100.00
50356;BME280;36264;51.296;-0.602;2023-02-08T01:40:03;103508.63;;;0.46;100.00
50356;BME280;36264;51.296;-0.602;2023-02-08T01:42:28;103494.06;;;0.45;100.00
50356;BME280;36264;51.296;-0.602;2023-02-08T01:48:09;103490.03;;;0.34;100.00
50356;BME280;36264;51.296;-0.602;2023-02-08T01:50:45;103501.50;;;0.41;100.00
50356;BME280;36264;51.296;-0.602;2023-02-08T01:53:14;103497.25;;;0.41;100.00
50356;BME280;36264;51.296;-0.602;2023-02-08T01:55:45;103494.78;;;0.43;100.00
50356;BME280;36264;51.296;-0.602;2023-02-08T01:58:12;103491.34;;;0.42;100.00
50356;BME280;36264;51.296;-0.602;2023-02-08T02:00:38;103497.25;;;0.41;100.00
50356;BME280;36264;51.296;-0.602;2023-02-08T02:03:05;103497.31;;;0.43;100.00
50356;BME280;36264;51.296;-0.602;2023-02-08T02:05:42;103499.88;;;0.43;100.00
50356;BME280;36264;51.296;-0.602;2023-02-08T02:08:09;103498.94;;;0.41;100.00
50356;BME280;36264;51.296;-0.602;2023-02-08T02:10:36;103501.41;;;0.39;100.00
50356;BME280;36264;51.296;-0.602;2023-02-08T02:13:06;103495.84;;;0.31;100.00
50356;BME280;36264;51.296;-0.602;2023-02-08T02:15:32;103497.19;;;0.25;100.00
50356;BME280;36264;51.296;-0.602;2023-02-08T02:17:58;103479.34;;;0.10;100.00
50356;BME280;36264;51.296;-0.602;2023-02-08T02:28:38;103493.44;;;0.18;100.00
50356;BME280;36264;51.296;-0.602;2023-02-08T02:37:07;103492.66;;;0.04;100.00
50356;BME280;36264;51.296;-0.602;2023-02-08T02:39:44;103483.22;;;0.03;100.00
50356;BME280;36264;51.296;-0.602;2023-02-08T02:42:27;103474.66;;;0.03;100.00
50356;BME280;36264;51.296;-0.602;2023-02-08T02:45:25;103472.66;;;-0.03;100.00
50356;BME280;36264;51.296;-0.602;2023-02-08T02:48:11;103459.53;;;-0.09;100.00
50356;BME280;36264;51.296;-0.602;2023-02-08T02:50:48;103460.31;;;-0.10;100.00
50356;BME280;36264;51.296;-0.602;2023-02-08T02:53:31;103456.81;;;-0.12;100.00
50356;BME280;36264;51.296;-0.602;2023-02-08T02:56:02;103448.78;;;-0.19;100.00
50356;BME280;36264;51.296;-0.602;2023-02-08T02:58:29;103442.63;;;-0.22;100.00
50356;BME280;36264;51.296;-0.602;2023-02-08T03:00:57;103440.16;;;-0.21;100.00
50356;BME280;36264;51.296;-0.602;2023-02-08T03:03:26;103438.66;;;-0.17;100.00
50356;BME280;36264;51.296;-0.602;2023-02-08T03:05:57;103435.16;;;-0.19;100.00
50356;BME280;36264;51.296;-0.602;2023-02-08T03:16:15;103436.72;;;-0.21;100.00
50356;BME280;36264;51.296;-0.602;2023-02-08T03:21:21;103423.25;;;-0.19;100.00
50356;BME280;36264;51.296;-0.602;2023-02-08T03:24:15;103423.44;;;-0.15;100.00
50356;BME280;36264;51.296;-0.602;2023-02-08T03:26:49;103429.41;;;-0.15;100.00
50356;BME280;36264;51.296;-0.602;2023-02-08T03:29:24;103427.72;;;-0.14;100.00
50356;BME280;36264;51.296;-0.602;2023-02-08T03:32:05;103420.06;;;-0.14;100.00
50356;BME280;36264;51.296;-0.602;2023-02-08T03:34:57;103429.94;;;-0.06;100.00
50356;BME280;36264;51.296;-0.602;2023-02-08T03:37:35;103433.69;;;0.01;100.00
50356;BME280;36264;51.296;-0.602;2023-02-08T03:40:06;103434.56;;;0.02;100.00
50356;BME280;36264;51.296;-0.602;2023-02-08T03:42:34;103433.44;;;-0.04;100.00
50356;BME280;36264;51.296;-0.602;2023-02-08T03:45:08;103429.41;;;0.00;100.00
50356;BME280;36264;51.296;-0.602;2023-02-08T03:47:38;103424.44;;;0.03;100.00
50356;BME280;36264;51.296;-0.602;2023-02-08T03:50:09;103432.34;;;0.08;100.00
50356;BME280;36264;51.296;-0.602;2023-02-08T03:52:36;103427.31;;;0.09;100.00
50356;BME280;36264;51.296;-0.602;2023-02-08T03:55:11;103402.25;;;0.02;100.00
50356;BME280;36264;51.296;-0.602;2023-02-08T03:57:43;103415.78;;;0.16;100.00
50356;BME280;36264;51.296;-0.602;2023-02-08T04:00:12;103409.88;;;0.17;100.00
50356;BME280;36264;51.296;-0.602;2023-02-08T04:02:55;103414.19;;;0.18;100.00
50356;BME280;36264;51.296;-0.602;2023-02-08T04:05:22;103415.78;;;0.16;100.00
50356;BME280;36264;51.296;-0.602;2023-02-08T04:07:48;103414.56;;;0.09;100.00
50356;BME280;36264;51.296;-0.602;2023-02-08T04:10:14;103414.47;;;0.08;100.00
50356;BME280;36264;51.296;-0.602;2023-02-08T04:12:41;103416.41;;;0.12;100.00
50356;BME280;36264;51.296;-0.602;2023-02-08T04:15:07;103405.16;;;0.08;100.00
50356;BME280;36264;51.296;-0.602;2023-02-08T04:17:32;103388.34;;;-0.03;100.00
50356;BME280;36264;51.296;-0.602;2023-02-08T04:19:58;103412.91;;;0.10;100.00
50356;BME280;36264;51.296;-0.602;2023-02-08T04:22:24;103409.44;;;0.09;100.00
50356;BME280;36264;51.296;-0.602;2023-02-08T04:24:49;103406.09;;;0.10;100.00
50356;BME280;36264;51.296;-0.602;2023-02-08T04:27:15;103403.63;;;0.12;100.00
50356;BME280;36264;51.296;-0.602;2023-02-08T04:29:40;103410.44;;;0.11;100.00
50356;BME280;36264;51.296;-0.602;2023-02-08T04:32:05;103401.94;;;0.12;100.00
50356;BME280;36264;51.296;-0.602;2023-02-08T04:34:36;103405.41;;;0.13;100.00
50356;BME280;36264;51.296;-0.602;2023-02-08T04:37:01;103396.84;;;0.12;100.00
50356;BME280;36264;51.296;-0.602;2023-02-08T04:39:26;103387.44;;;0.11;100.00
50356;BME280;36264;51.296;-0.602;2023-02-08T04:41:52;103388.22;;;0.10;100.00
50356;BME280;36264;51.296;-0.602;2023-02-08T04:44:17;103395.09;;;0.11;100.00
50356;BME280;36264;51.296;-0.602;2023-02-08T04:46:42;103384.88;;;0.11;100.00
50356;BME280;36264;51.296;-0.602;2023-02-08T04:49:08;103395.00;;;0.10;100.00
50356;BME280;36264;51.296;-0.602;2023-02-08T04:51:33;103398.00;;;0.17;100.00
50356;BME280;36264;51.296;-0.602;2023-02-08T04:53:58;103403.78;;;0.15;100.00
50356;BME280;36264;51.296;-0.602;2023-02-08T04:56:24;103377.66;;;0.04;100.00
50356;BME280;36264;51.296;-0.602;2023-02-08T04:58:49;103394.34;;;0.14;100.00
50356;BME280;36264;51.296;-0.602;2023-02-08T05:01:15;103391.63;;;0.11;100.00
50356;BME280;36264;51.296;-0.602;2023-02-08T05:03:40;103394.28;;;0.12;100.00
50356;BME280;36264;51.296;-0.602;2023-02-08T05:06:06;103397.00;;;0.15;100.00
50356;BME280;36264;51.296;-0.602;2023-02-08T05:08:31;103398.69;;;0.15;100.00
50356;BME280;36264;51.296;-0.602;2023-02-08T05:10:57;103398.50;;;0.12;100.00
50356;BME280;36264;51.296;-0.602;2023-02-08T05:13:22;103404.31;;;0.09;100.00
50356;BME280;36264;51.296;-0.602;2023-02-08T05:15:47;103408.56;;;0.09;100.00
50356;BME280;36264;51.296;-0.602;2023-02-08T05:18:13;103409.28;;;0.06;100.00
50356;BME280;36264;51.296;-0.602;2023-02-08T05:20:38;103404.16;;;0.06;100.00
50356;BME280;36264;51.296;-0.602;2023-02-08T05:23:03;103405.94;;;0.07;100.00
50356;BME280;36264;51.296;-0.602;2023-02-08T05:25:30;103405.06;;;0.07;100.00
50356;BME280;36264;51.296;-0.602;2023-02-08T05:27:55;103411.91;;;0.08;100.00
50356;BME280;36264;51.296;-0.602;2023-02-08T05:30:20;103390.50;;;0.06;100.00
50356;BME280;36264;51.296;-0.602;2023-02-08T05:32:46;103393.50;;;0.13;100.00
50356;BME280;36264;51.296;-0.602;2023-02-08T05:35:11;103390.16;;;0.14;100.00
50356;BME280;36264;51.296;-0.602;2023-02-08T05:37:37;103386.00;;;0.16;100.00
50356;BME280;36264;51.296;-0.602;2023-02-08T05:40:02;103394.69;;;0.20;100.00
50356;BME280;36264;51.296;-0.602;2023-02-08T05:42:27;103402.28;;;0.18;100.00
50356;BME280;36264;51.296;-0.602;2023-02-08T05:44:53;103404.50;;;0.12;100.00
50356;BME280;36264;51.296;-0.602;2023-02-08T05:47:18;103410.50;;;0.13;100.00
50356;BME280;36264;51.296;-0.602;2023-02-08T05:49:44;103407.88;;;0.11;100.00
50356;BME280;36264;51.296;-0.602;2023-02-08T05:52:09;103421.44;;;0.10;100.00
50356;BME280;36264;51.296;-0.602;2023-02-08T05:54:34;103411.22;;;0.10;100.00
50356;BME280;36264;51.296;-0.602;2023-02-08T05:57:00;103411.22;;;0.10;100.00
50356;BME280;36264;51.296;-0.602;2023-02-08T05:59:25;103425.94;;;0.14;100.00
50356;BME280;36264;51.296;-0.602;2023-02-08T06:01:51;103405.94;;;0.07;100.00
50356;BME280;36264;51.296;-0.602;2023-02-08T06:04:16;103417.53;;;0.17;100.00
50356;BME280;36264;51.296;-0.602;2023-02-08T06:06:41;103421.78;;;0.16;100.00
50356;BME280;36264;51.296;-0.602;2023-02-08T06:09:07;103421.03;;;0.19;100.00
50356;BME280;36264;51.296;-0.602;2023-02-08T06:11:32;103413.47;;;0.21;100.00
50356;BME280;36264;51.296;-0.602;2023-02-08T06:13:58;103413.47;;;0.21;100.00
50356;BME280;36264;51.296;-0.602;2023-02-08T06:16:23;103409.94;;;0.18;100.00
50356;BME280;36264;51.296;-0.602;2023-02-08T06:18:49;103407.47;;;0.20;100.00
50356;BME280;36264;51.296;-0.602;2023-02-08T06:21:14;103411.88;;;0.23;100.00
50356;BME280;36264;51.296;-0.602;2023-02-08T06:23:39;103408.25;;;0.19;100.00
50356;BME280;36264;51.296;-0.602;2023-02-08T06:26:05;103404.13;;;0.21;100.00
50356;BME280;36264;51.296;-0.602;2023-02-08T06:28:31;103407.56;;;0.22;100.00
50356;BME280;36264;51.296;-0.602;2023-02-08T06:30:56;103404.84;;;0.18;100.00
50356;BME280;36264;51.296;-0.602;2023-02-08T06:33:21;103407.31;;;0.17;100.00
50356;BME280;36264;51.296;-0.602;2023-02-08T06:35:50;103408.03;;;0.14;100.00
50356;BME280;36264;51.296;-0.602;2023-02-08T06:38:16;103414.56;;;0.09;100.00
50356;BME280;36264;51.296;-0.602;2023-02-08T06:40:41;103413.94;;;0.13;100.00
50356;BME280;36264;51.296;-0.602;2023-02-08T06:43:07;103408.03;;;0.14;100.00
50356;BME280;36264;51.296;-0.602;2023-02-08T06:45:32;103404.75;;;0.17;100.00
50356;BME280;36264;51.296;-0.602;2023-02-08T06:47:58;103405.56;;;0.16;100.00
50356;BME280;36264;51.296;-0.602;2023-02-08T06:50:23;103403.72;;;0.13;100.00
50356;BME280;36264;51.296;-0.602;2023-02-08T06:52:48;103407.97;;;0.13;100.00
50356;BME280;36264;51.296;-0.602;2023-02-08T06:55:14;103406.00;;;0.09;100.00
50356;BME280;36264;51.296;-0.602;2023-02-08T06:57:40;103407.69;;;0.08;100.00
50356;BME280;36264;51.296;-0.602;2023-02-08T07:00:06;103402.69;;;0.10;100.00
50356;BME280;36264;51.296;-0.602;2023-02-08T07:02:31;103400.72;;;0.06;100.00
50356;BME280;36264;51.296;-0.602;2023-02-08T07:04:56;103404.25;;;0.08;100.00
50356;BME280;36264;51.296;-0.602;2023-02-08T07:09:56;103399.94;;;0.07;100.00
50356;BME280;36264;51.296;-0.602;2023-02-08T07:12:21;103406.09;;;0.10;100.00
50356;BME280;36264;51.296;-0.602;2023-02-08T07:14:46;103395.72;;;0.07;100.00
50356;BME280;36264;51.296;-0.602;2023-02-08T07:17:12;103398.09;;;0.04;100.00
50356;BME280;36264;51.296;-0.602;2023-02-08T07:19:38;103398.78;;;0.02;100.00
50356;BME280;36264;51.296;-0.602;2023-02-08T07:22:04;103400.47;;;0.01;100.00
50356;BME280;36264;51.296;-0.602;2023-02-08T07:24:36;103400.47;;;0.01;100.00
50356;BME280;36264;51.296;-0.602;2023-02-08T07:27:02;103401.81;;;-0.06;100.00
50356;BME280;36264;51.296;-0.602;2023-02-08T07:29:29;103399.97;;;-0.08;100.00
50356;BME280;36264;51.296;-0.602;2023-02-08T07:31:55;103386.94;;;-0.13;100.00
50356;BME280;36264;51.296;-0.602;2023-02-08T07:34:21;103395.31;;;-0.15;100.00
50356;BME280;36264;51.296;-0.602;2023-02-08T07:36:49;103396.38;;;-0.12;100.00
50356;BME280;36264;51.296;-0.602;2023-02-08T07:39:14;103403.78;;;-0.16;100.00
50356;BME280;36264;51.296;-0.602;2023-02-08T07:41:40;103393.56;;;-0.16;100.00
50356;BME280;36264;51.296;-0.602;2023-02-08T07:44:05;103397.88;;;-0.15;100.00
50356;BME280;36264;51.296;-0.602;2023-02-08T07:46:31;103385.88;;;-0.16;100.00
50356;BME280;36264;51.296;-0.602;2023-02-08T07:48:56;103380.78;;;-0.16;100.00
50356;BME280;36264;51.296;-0.602;2023-02-08T07:51:22;103383.34;;;-0.16;100.00
50356;BME280;36264;51.296;-0.602;2023-02-08T07:53:48;103385.97;;;-0.15;100.00
50356;BME280;36264;51.296;-0.602;2023-02-08T07:56:13;103380.16;;;-0.12;100.00
50356;BME280;36264;51.296;-0.602;2023-02-08T07:58:39;103387.91;;;-0.11;100.00
50356;BME280;36264;51.296;-0.602;2023-02-08T08:01:04;103393.13;;;-0.09;100.00
50356;BME280;36264;51.296;-0.602;2023-02-08T08:03:29;103388.78;;;-0.10;100.00
50356;BME280;36264;51.296;-0.602;2023-02-08T08:05:55;103385.53;;;-0.08;100.00
50356;BME280;36264;51.296;-0.602;2023-02-08T08:08:20;103392.28;;;-0.08;100.00
50356;BME280;36264;51.296;-0.602;2023-02-08T08:10:46;103394.69;;;-0.11;100.00
50356;BME280;36264;51.296;-0.602;2023-02-08T08:13:12;103394.69;;;-0.11;100.00
50356;BME280;36264;51.296;-0.602;2023-02-08T08:15:38;103386.31;;;-0.09;100.00
50356;BME280;36264;51.296;-0.602;2023-02-08T08:18:04;103384.97;;;-0.02;100.00
50356;BME280;36264;51.296;-0.602;2023-02-08T08:20:29;103380.84;;;0.00;100.00
50356;BME280;36264;51.296;-0.602;2023-02-08T08:22:55;103373.31;;;0.03;100.00
50356;BME280;36264;51.296;-0.602;2023-02-08T08:25:21;103368.94;;;0.01;100.00
50356;BME280;36264;51.296;-0.602;2023-02-08T08:27:46;103374.22;;;0.04;100.00
50356;BME280;36264;51.296;-0.602;2023-02-08T08:30:14;103373.81;;;0.12;100.00
50356;BME280;36264;51.296;-0.602;2023-02-08T08:32:40;103376.38;;;0.12;100.00
50356;BME280;36264;51.296;-0.602;2023-02-08T08:35:06;103373.13;;;0.15;100.00
50356;BME280;36264;51.296;-0.602;2023-02-08T08:37:33;103375.94;;;0.20;100.00
50356;BME280;36264;51.296;-0.602;2023-02-08T08:39:58;103371.78;;;0.22;100.00
50356;BME280;36264;51.296;-0.602;2023-02-08T08:42:24;103369.38;;;0.25;100.00
50356;BME280;36264;51.296;-0.602;2023-02-08T08:44:51;103372.09;;;0.28;100.00
50356;BME280;36264;51.296;-0.602;2023-02-08T08:47:16;103369.63;;;0.29;100.00
50356;BME280;36264;51.296;-0.602;2023-02-08T08:49:42;103363.66;;;0.29;100.00
50356;BME280;36264;51.296;-0.602;2023-02-08T08:52:08;103374.34;;;0.22;100.00
50356;BME280;36264;51.296;-0.602;2023-02-08T08:54:34;103376.34;;;0.27;100.00
50356;BME280;36264;51.296;-0.602;2023-02-08T08:56:59;103373.97;;;0.30;100.00
50356;BME280;36264;51.296;-0.602;2023-02-08T08:59:25;103361.25;;;0.32;100.00
50356;BME280;36264;51.296;-0.602;2023-02-08T09:01:50;103364.13;;;0.38;100.00
50356;BME280;36264;51.296;-0.602;2023-02-08T09:04:16;103371.41;;;0.47;100.00
50356;BME280;36264;51.296;-0.602;2023-02-08T09:06:41;103369.03;;;0.50;100.00
50356;BME280;36264;51.296;-0.602;2023-02-08T09:09:07;103381.41;;;0.59;100.00
50356;BME280;36264;51.296;-0.602;2023-02-08T09:11:32;103378.22;;;0.63;100.00
50356;BME280;36264;51.296;-0.602;2023-02-08T09:14:00;103366.84;;;0.74;100.00
50356;BME280;36264;51.296;-0.602;2023-02-08T09:16:26;103362.13;;;0.82;100.00
50356;BME280;36264;51.296;-0.602;2023-02-08T09:18:51;103361.44;;;0.84;100.00
50356;BME280;36264;51.296;-0.602;2023-02-08T09:21:19;103359.19;;;0.90;100.00
50356;BME280;36264;51.296;-0.602;2023-02-08T09:23:45;103351.66;;;0.94;100.00
50356;BME280;36264;51.296;-0.602;2023-02-08T09:26:13;103335.09;;;0.87;100.00
50356;BME280;36264;51.296;-0.602;2023-02-08T09:28:39;103349.22;;;0.97;100.00
50356;BME280;36264;51.296;-0.602;2023-02-08T09:33:33;103351.22;;;1.02;100.00
50356;BME280;36264;51.296;-0.602;2023-02-08T09:35:58;103357.44;;;1.07;100.00
50356;BME280;36264;51.296;-0.602;2023-02-08T09:38:25;103351.63;;;1.10;100.00
50356;BME280;36264;51.296;-0.602;2023-02-08T09:46:37;103351.66;;;1.28;100.00
50356;BME280;36264;51.296;-0.602;2023-02-08T09:49:09;103345.97;;;1.34;100.00
50356;BME280;36264;51.296;-0.602;2023-02-08T09:51:45;103339.53;;;1.42;100.00
50356;BME280;36264;51.296;-0.602;2023-02-08T09:54:21;103334.56;;;1.45;100.00
50356;BME280;36264;51.296;-0.602;2023-02-08T09:56:48;103328.63;;;1.46;100.00
50356;BME280;36264;51.296;-0.602;2023-02-08T09:59:22;103344.63;;;1.60;100.00
50356;BME280;36264;51.296;-0.602;2023-02-08T10:01:54;103346.34;;;1.59;100.00
50356;BME280;36264;51.296;-0.602;2023-02-08T10:04:29;103351.03;;;1.68;100.00
50356;BME280;36264;51.296;-0.602;2023-02-08T10:06:58;103347.06;;;1.75;100.00
50356;BME280;36264;51.296;-0.602;2023-02-08T10:09:25;103348.44;;;1.86;100.00
50356;BME280;36264;51.296;-0.602;2023-02-08T10:19:56;103345.69;;;2.19;100.00
50356;BME280;36264;51.296;-0.602;2023-02-08T10:22:38;103353.19;;;2.34;100.00
50356;BME280;36264;51.296;-0.602;2023-02-08T10:32:58;103337.13;;;2.58;100.00
50356;BME280;36264;51.296;-0.602;2023-02-08T10:35:28;103333.91;;;2.62;100.00
50356;BME280;36264;51.296;-0.602;2023-02-08T10:37:56;103326.38;;;2.66;100.00
50356;BME280;36264;51.296;-0.602;2023-02-08T10:40:36;103332.03;;;2.79;100.00
50356;BME280;36264;51.296;-0.602;2023-02-08T10:43:32;103330.66;;;2.87;100.00
50356;BME280;36264;51.296;-0.602;2023-02-08T10:46:22;103329.19;;;2.92;100.00
50356;BME280;36264;51.296;-0.602;2023-02-08T10:48:52;103334.34;;;2.92;100.00
50356;BME280;36264;51.296;-0.602;2023-02-08T10:51:20;103322.50;;;2.96;100.00
50356;BME280;36264;51.296;-0.602;2023-02-08T10:53:47;103336.59;;;3.05;100.00
50356;BME280;36264;51.296;-0.602;2023-02-08T10:56:33;103328.34;;;3.13;100.00
50356;BME280;36264;51.296;-0.602;2023-02-08T10:59:00;103330.25;;;3.18;100.00
50356;BME280;36264;51.296;-0.602;2023-02-08T11:01:28;103337.34;;;3.24;100.00
50356;BME280;36264;51.296;-0.602;2023-02-08T11:04:13;103337.81;;;3.35;100.00
50356;BME280;36264;51.296;-0.602;2023-02-08T11:06:40;103332.72;;;3.36;100.00
50356;BME280;36264;51.296;-0.602;2023-02-08T11:09:22;103331.22;;;3.41;100.00
50356;BME280;36264;51.296;-0.602;2023-02-08T11:11:48;103327.69;;;3.39;100.00
50356;BME280;36264;51.296;-0.602;2023-02-08T11:14:18;103322.84;;;3.47;100.00
50356;BME280;36264;51.296;-0.602;2023-02-08T11:16:49;103322.13;;;3.50;100.00
50356;BME280;36264;51.296;-0.602;2023-02-08T11:19:37;103319.78;;;3.56;100.00
50356;BME280;36264;51.296;-0.602;2023-02-08T11:22:13;103323.28;;;3.58;100.00
50356;BME280;36264;51.296;-0.602;2023-02-08T11:24:40;103318.31;;;3.62;100.00
50356;BME280;36264;51.296;-0.602;2023-02-08T11:27:28;103313.00;;;3.80;100.00
50356;BME280;36264;51.296;-0.602;2023-02-08T11:32:38;103324.19;;;4.04;100.00
50356;BME280;36264;51.296;-0.602;2023-02-08T11:35:30;103322.94;;;4.16;100.00
50356;BME280;36264;51.296;-0.602;2023-02-08T11:37:58;103310.19;;;4.20;100.00
50356;BME280;36264;51.296;-0.602;2023-02-08T11:40:34;103315.56;;;4.26;100.00
50356;BME280;36264;51.296;-0.602;2023-02-08T11:43:00;103299.78;;;4.16;100.00
50356;BME280;36264;51.296;-0.602;2023-02-08T11:45:35;103312.44;;;4.34;100.00
50356;BME280;36264;51.296;-0.602;2023-02-08T11:48:02;103310.19;;;4.44;100.00
50356;BME280;36264;51.296;-0.602;2023-02-08T11:50:31;103304.63;;;4.56;100.00
50356;BME280;36264;51.296;-0.602;2023-02-08T11:53:06;103306.78;;;4.69;100.00
50356;BME280;36264;51.296;-0.602;2023-02-08T11:55:33;103307.09;;;4.78;100.00
50356;BME280;36264;51.296;-0.602;2023-02-08T12:00:39;103291.34;;;4.95;100.00
50356;BME280;36264;51.296;-0.602;2023-02-08T12:03:11;103281.44;;;5.07;100.00
50356;BME280;36264;51.296;-0.602;2023-02-08T12:08:39;103272.66;;;5.28;100.00
50356;BME280;36264;51.296;-0.602;2023-02-08T12:13:54;103257.72;;;5.44;100.00
50356;BME280;36264;51.296;-0.602;2023-02-08T12:16:53;103252.09;;;5.58;100.00
50356;BME280;36264;51.296;-0.602;2023-02-08T12:22:23;103231.47;;;5.88;100.00
50356;BME280;36264;51.296;-0.602;2023-02-08T12:27:51;103226.13;;;6.11;100.00
50356;BME280;36264;51.296;-0.602;2023-02-08T12:47:21;103184.56;;;6.68;100.00
50356;BME280;36264;51.296;-0.602;2023-02-08T12:50:07;103175.16;;;6.70;100.00
50356;BME280;36264;51.296;-0.602;2023-02-08T12:52:43;103169.09;;;6.68;100.00
50356;BME280;36264;51.296;-0.602;2023-02-08T12:57:46;103159.50;;;6.64;100.00
50356;BME280;36264;51.296;-0.602;2023-02-08T13:00:20;103150.84;;;6.62;100.00
50356;BME280;36264;51.296;-0.602;2023-02-08T13:05:22;103140.44;;;6.59;100.00
50356;BME280;36264;51.296;-0.602;2023-02-08T13:07:53;103131.88;;;6.60;100.00
50356;BME280;36264;51.296;-0.602;2023-02-08T13:10:26;103127.63;;;6.62;100.00
50356;BME280;36264;51.296;-0.602;2023-02-08T13:12:56;103119.84;;;6.61;100.00
50356;BME280;36264;51.296;-0.602;2023-02-08T13:15:29;103120.75;;;6.64;100.00
50356;BME280;36264;51.296;-0.602;2023-02-08T13:18:11;103106.19;;;6.66;100.00
50356;BME280;36264;51.296;-0.602;2023-02-08T13:20:46;103112.22;;;6.67;100.00
50356;BME280;36264;51.296;-0.602;2023-02-08T13:23:35;103110.59;;;6.70;100.00
50356;BME280;36264;51.296;-0.602;2023-02-08T13:26:08;103101.16;;;6.71;100.00
50356;BME280;36264;51.296;-0.602;2023-02-08T13:28:36;103096.88;;;6.73;100.00
50356;BME280;36264;51.296;-0.602;2023-02-08T13:33:35;103095.44;;;6.86;100.00
50356;BME280;36264;51.296;-0.602;2023-02-08T13:36:04;103096.47;;;6.94;100.00
50356;BME280;36264;51.296;-0.602;2023-02-08T13:38:35;103083.88;;;7.10;100.00
50356;BME280;36264;51.296;-0.602;2023-02-08T13:41:14;103085.16;;;7.30;100.00
50356;BME280;36264;51.296;-0.602;2023-02-08T13:44:05;103085.84;;;7.21;100.00
50356;BME280;36264;51.296;-0.602;2023-02-08T13:46:36;103066.94;;;7.24;100.00
50356;BME280;36264;51.296;-0.602;2023-02-08T13:49:50;103067.22;;;7.38;100.00
50356;BME280;36264;51.296;-0.602;2023-02-08T14:06:19;103017.41;;;7.97;100.00
50356;BME280;36264;51.296;-0.602;2023-02-08T14:09:03;103022.63;;;8.00;100.00
50356;BME280;36264;51.296;-0.602;2023-02-08T14:11:47;103034.78;;;8.04;100.00
50356;BME280;36264;51.296;-0.602;2023-02-08T14:14:19;103033.94;;;8.07;100.00
50356;BME280;36264;51.296;-0.602;2023-02-08T14:19:33;103037.59;;;8.20;100.00
50356;BME280;36264;51.296;-0.602;2023-02-08T14:22:03;103033.34;;;8.23;100.00
50356;BME280;36264;51.296;-0.602;2023-02-08T14:24:32;103039.50;;;8.30;100.00
50356;BME280;36264;51.296;-0.602;2023-02-08T14:30:07;103002.53;;;8.42;99.33
50356;BME280;36264;51.296;-0.602;2023-02-08T14:32:47;103007.84;;;8.48;97.71
50356;BME280;36264;51.296;-0.602;2023-02-08T14:37:41;103002.03;;;8.64;97.32
50356;BME280;36264;51.296;-0.602;2023-02-08T14:43:02;102989.19;;;8.74;98.23
50356;BME280;36264;51.296;-0.602;2023-02-08T14:53:57;102968.81;;;8.39;93.96
50356;BME280;36264;51.296;-0.602;2023-02-08T14:56:28;102961.94;;;8.39;100.00